»·PEaware :: UAL2238 KSFO-KSAN

UAL2238 :: KSFO-KSAN

FLIGHT INFORMATION

Flight Status: Arrived
Operator:
United Airlines
More flights by this operator :: More flights under this callsign
Pilot: Sam W. (19108)
Aircraft: BOEING 737-800
(B738)
More flights by this aircraft type
Origin: KSFO San Francisco Intl
United States
Destination: KSAN San Diego Intl-Lindbergh
United States
More flights between these airports :: More routes between these airports
Route: +OFFSH1 MCKEY DCT LAX COMIX1
File this flight plan on PilotEdge
Remarks:
Altitude:
(Current/Filed)
37,000ft
Speed:
(Current/Filed)
447kts
Departed: 05-May-18 02:01 PM
Arrived: 05-May-18 03:15 PM
Distance/Time
Traveled:
387nm/1:14
Distance/Time
To Go:
Arrived

Flight Plot

Page will automatically refresh every two minutes.

Flight plan parsing failed; only flown route is shown


Map Options




Map Legend


Flown Route
Filed Route
Departure Airport
Arrival Airport
Navaid (VOR, NDB)
Fix

Horizontal Profiles

Position Reports

Time Latitude Longitude Heading Altitude Ground
Speed
05-May-18 13:41 37.619818 -122.384061 205 20ft 0kts
05-May-18 13:42 37.619818 -122.384061 205 20ft 0kts
05-May-18 13:44 37.619818 -122.384061 205 21ft 0kts
05-May-18 13:45 37.619818 -122.384061 205 21ft 0kts
05-May-18 13:46 37.619818 -122.384061 205 21ft 0kts
05-May-18 13:47 37.619818 -122.384061 205 21ft 0kts
05-May-18 13:48 37.619818 -122.384061 205 21ft 0kts
05-May-18 13:49 37.619818 -122.384061 205 21ft 0kts
05-May-18 13:50 37.619818 -122.384061 205 21ft 0kts
05-May-18 13:51 37.619818 -122.384061 205 21ft 0kts
05-May-18 13:52 37.619818 -122.384061 205 21ft 0kts
05-May-18 13:53 37.620251 -122.383851 183 21ft 2kts
05-May-18 13:54 37.620593 -122.384241 117 21ft 0kts
05-May-18 13:55 37.620593 -122.384241 117 21ft 0kts
05-May-18 13:56 37.620417 -122.383825 117 21ft 8kts
05-May-18 13:57 37.617848 -122.379513 168 21ft 20kts
05-May-18 13:58 37.612982 -122.382063 208 21ft 20kts
05-May-18 13:59 37.608610 -122.384092 118 20ft 12kts
05-May-18 14:00 37.609119 -122.382112 27 21ft 36kts
05-May-18 14:01 37.640394 -122.360596 9 1003ft 166kts
05-May-18 14:02 37.695316 -122.370953 318 2516ft 241kts
05-May-18 14:03 37.690853 -122.449809 215 5442ft 266kts
05-May-18 14:04 37.631618 -122.508420 232 8604ft 281kts
05-May-18 14:05 37.592573 -122.596679 240 11289ft 307kts
05-May-18 14:06 37.545221 -122.696213 216 13286ft 341kts
05-May-18 14:07 37.452078 -122.703694 169 16112ft 357kts
05-May-18 14:08 37.353452 -122.675354 171 18675ft 370kts
05-May-18 14:09 37.251039 -122.647711 172 20992ft 383kts
05-May-18 14:10 37.157436 -122.622952 172 22812ft 393kts
05-May-18 14:11 37.048764 -122.594506 173 24596ft 405kts
05-May-18 14:12 36.936583 -122.565244 173 26190ft 416kts
05-May-18 14:13 36.821692 -122.535417 173 27591ft 427kts
05-May-18 14:14 36.703902 -122.504828 173 28866ft 438kts
05-May-18 14:15 36.582945 -122.473517 173 29967ft 448kts
05-May-18 14:16 36.461064 -122.440847 166 31445ft 452kts
05-May-18 14:17 36.360628 -122.341680 136 32807ft 476kts
05-May-18 14:18 36.274551 -122.216909 135 34141ft 474kts
05-May-18 14:19 36.189360 -122.093402 135 35444ft 471kts
05-May-18 14:20 36.104768 -121.970437 135 36627ft 468kts
05-May-18 14:21 36.019760 -121.847655 135 37105ft 470kts
05-May-18 14:22 35.935111 -121.725922 135 37103ft 467kts
05-May-18 14:23 35.850108 -121.604138 135 37093ft 468kts
05-May-18 14:24 35.765057 -121.482721 135 37070ft 469kts
05-May-18 14:25 35.679846 -121.361307 135 37051ft 470kts
05-May-18 14:26 35.594038 -121.239548 135 37060ft 471kts
05-May-18 14:27 35.508022 -121.118271 135 37059ft 472kts
05-May-18 14:28 35.428368 -120.988833 127 37062ft 477kts
05-May-18 14:29 35.353402 -120.855105 128 37072ft 477kts
05-May-18 14:30 35.277860 -120.721898 127 37085ft 477kts
05-May-18 14:31 35.202097 -120.588194 127 37089ft 477kts
05-May-18 14:32 35.126211 -120.455308 127 37097ft 477kts
05-May-18 14:33 35.050038 -120.322588 127 37098ft 478kts
05-May-18 14:34 34.973421 -120.189641 127 37095ft 478kts
05-May-18 14:35 34.896792 -120.057189 127 37082ft 479kts
05-May-18 14:36 34.819985 -119.924953 127 37063ft 479kts
05-May-18 14:37 34.742663 -119.792278 127 37062ft 480kts
05-May-18 14:38 34.665428 -119.660258 127 37055ft 480kts
05-May-18 14:39 34.587726 -119.527938 127 37063ft 480kts
05-May-18 14:40 34.510079 -119.396199 127 37065ft 480kts
05-May-18 14:41 34.432372 -119.264844 127 37064ft 480kts
05-May-18 14:42 34.354243 -119.133254 126 37050ft 480kts
05-May-18 14:43 34.276167 -119.002232 126 37042ft 481kts
05-May-18 14:44 34.197988 -118.871508 126 36922ft 481kts
05-May-18 14:45 34.119687 -118.740986 126 34456ft 479kts
05-May-18 14:46 34.045068 -118.616776 126 32539ft 463kts
05-May-18 14:47 33.970252 -118.493214 126 30667ft 447kts
05-May-18 14:48 33.893484 -118.378840 135 28883ft 432kts
05-May-18 14:49 33.812301 -118.275480 134 27128ft 419kts
05-May-18 14:50 33.734356 -118.173756 133 25406ft 406kts
05-May-18 14:51 33.659333 -118.075293 133 23729ft 394kts
05-May-18 14:52 33.586424 -117.980016 133 22087ft 382kts
05-May-18 14:53 33.513502 -117.889527 137 20476ft 371kts
05-May-18 14:54 33.440169 -117.805146 136 18909ft 361kts
05-May-18 14:55 33.370799 -117.720506 135 17388ft 352kts
05-May-18 14:56 33.302836 -117.637858 135 15882ft 343kts
05-May-18 14:57 33.232779 -117.562993 145 14485ft 333kts
05-May-18 14:58 33.157414 -117.500640 145 13268ft 325kts
05-May-18 14:59 33.084414 -117.439656 145 12146ft 311kts
05-May-18 15:00 33.025353 -117.390212 144 11758ft 274kts
05-May-18 15:01 32.963680 -117.338528 144 10198ft 269kts
05-May-18 15:02 32.902630 -117.287483 144 9150ft 267kts
05-May-18 15:03 32.842007 -117.237125 144 8172ft 264kts
05-May-18 15:04 32.801742 -117.168291 105 7182ft 259kts
05-May-18 15:05 32.783946 -117.087377 104 6242ft 247kts
05-May-18 15:06 32.762560 -117.013481 108 5627ft 228kts
05-May-18 15:07 32.741609 -116.942602 108 4980ft 227kts
05-May-18 15:08 32.720704 -116.871557 108 4982ft 230kts
05-May-18 15:08 32.681123 -116.846281 211 4965ft 236kts
05-May-18 15:09 32.670562 -116.919077 279 4997ft 235kts
05-May-18 15:11 32.689630 -117.008514 286 3490ft 237kts
05-May-18 15:12 32.707036 -117.080296 286 2068ft 208kts
05-May-18 15:13 32.721445 -117.139707 286 886ft 161kts
05-May-18 15:14 32.732589 -117.185584 286 24ft 130kts
05-May-18 15:15 32.735002 -117.198679 249 23ft 8kts
05-May-18 15:15 32.735279 -117.200947 286 23ft 13kts
05-May-18 15:16 32.734714 -117.203794 194 23ft 2kts
05-May-18 15:17 32.734634 -117.203820 195 23ft 0kts
05-May-18 15:18 32.734634 -117.203820 195 23ft 0kts
05-May-18 15:19 32.734634 -117.203820 195 23ft 0kts

Navigation Log

Ident Type
Flight plan parsing failed, navigation log unavailable